Time;durP1;ratioP1;P1;durP2;ratioP2;P2;SDS_P1;SDS_P2;PMS_P1;PMS_P2;Temp;Humidity;BMP_temperature;BMP_pressure;BME280_temperature;BME280_humidity;BME280_pressure;Samples;Min_cycle;Max_cycle;Signal;HPM_P1;HPM_P2
2022/06/09 00:01:27;;;;;;;4.05;2.30;;;;;;;;;;5048770;28;20025;-73
2022/06/09 00:04:14;;;;;;;4.63;2.35;;;;;;;;;;5048180;28;20049;-73
2022/06/09 00:06:44;;;;;;;9.60;2.55;;;;;;;;;;5048213;28;20032;-73
2022/06/09 00:09:10;;;;;;;4.00;2.35;;;;;;;;;;5048178;28;20035;-73
2022/06/09 00:11:39;;;;;;;4.47;2.28;;;;;;;;;;5047427;28;20100;-73
2022/06/09 00:14:06;;;;;;;3.58;2.22;;;;;;;;;;5047886;28;20074;-73
2022/06/09 00:16:32;;;;;;;6.25;2.25;;;;;;;;;;5048121;28;20075;-73
2022/06/09 00:18:58;;;;;;;5.22;1.98;;;;;;;;;;5047855;28;20032;-73
2022/06/09 00:21:23;;;;;;;4.78;1.92;;;;;;;;;;5047361;28;20086;-73
2022/06/09 00:23:49;;;;;;;5.07;2.17;;;;;;;;;;5046932;28;20036;-73
2022/06/09 00:26:15;;;;;;;4.35;1.70;;;;;;;;;;5047645;28;20132;-73
2022/06/09 00:28:40;;;;;;;4.07;1.73;;;;;;;;;;5045732;28;20341;-73
2022/06/09 00:31:05;;;;;;;4.45;1.70;;;;;;;;;;5047187;28;20024;-73
2022/06/09 00:33:31;;;;;;;5.25;1.73;;;;;;;;;;5048544;28;20063;-73
2022/06/09 00:35:56;;;;;;;3.22;1.50;;;;;;;;;;5051708;28;20024;-73
2022/06/09 00:38:21;;;;;;;4.47;1.90;;;;;;;;;;5051418;28;20100;-73
2022/06/09 00:40:46;;;;;;;3.28;1.65;;;;;;;;;;5051768;28;20116;-73
2022/06/09 00:43:12;;;;;;;2.33;1.77;;;;;;;;;;5050563;28;20021;-73
2022/06/09 00:46:09;;;;;;;4.05;2.05;;;;;;;;;;5050909;28;20032;-73
2022/06/09 00:48:44;;;;;;;6.13;2.08;;;;;;;;;;5039542;28;20045;-73
2022/06/09 00:51:22;;;;;;;5.63;1.90;;;;;;;;;;5050950;28;20025;-73
2022/06/09 00:53:51;;;;;;;4.25;1.83;;;;;;;;;;5050075;28;20032;-73
2022/06/09 00:56:16;;;;;;;7.20;2.33;;;;;;;;;;5049827;28;20115;-74
2022/06/09 00:58:46;;;;;;;4.20;1.90;;;;;;;;;;5051052;28;20448;-74
2022/06/09 01:01:14;;;;;;;5.55;1.52;;;;;;;;;;5050815;28;20163;-74
2022/06/09 01:03:44;;;;;;;5.28;1.73;;;;;;;;;;5049851;28;20021;-73
2022/06/09 01:06:16;;;;;;;4.55;1.60;;;;;;;;;;5050338;28;20397;-73
2022/06/09 01:08:48;;;;;;;4.07;1.58;;;;;;;;;;5050738;28;20044;-73
2022/06/09 01:11:14;;;;;;;7.97;1.90;;;;;;;;;;5050422;28;20505;-73
2022/06/09 01:13:40;;;;;;;5.35;1.60;;;;;;;;;;5050648;28;20025;-73
2022/06/09 01:16:15;;;;;;;6.25;2.40;;;;;;;;;;5051442;28;20345;-73
2022/06/09 01:19:06;;;;;;;8.07;1.83;;;;;;;;;;5050727;28;20113;-74
2022/06/09 01:21:49;;;;;;;6.93;1.80;;;;;;;;;;5050231;28;20503;-74
2022/06/09 01:24:48;;;;;;;5.25;1.52;;;;;;;;;;5050420;28;20029;-73
2022/06/09 01:27:32;;;;;;;3.22;1.50;;;;;;;;;;5050345;28;20378;-72
2022/06/09 01:30:06;;;;;;;7.20;1.90;;;;;;;;;;5050498;28;20033;-72
2022/06/09 01:33:01;;;;;;;4.05;1.77;;;;;;;;;;5050049;28;20499;-73
2022/06/09 01:35:26;;;;;;;6.15;1.90;;;;;;;;;;5042786;28;20066;-72
2022/06/09 01:37:56;;;;;;;6.65;2.10;;;;;;;;;;5050554;28;20029;-73
2022/06/09 01:40:22;;;;;;;4.03;1.77;;;;;;;;;;5050557;28;20025;-72
2022/06/09 01:42:49;;;;;;;5.63;1.90;;;;;;;;;;5049610;28;20021;-72
2022/06/09 01:45:20;;;;;;;9.00;2.15;;;;;;;;;;5048588;28;20479;-72
2022/06/09 01:47:55;;;;;;;6.65;1.92;;;;;;;;;;5050231;28;20044;-72
2022/06/09 01:50:28;;;;;;;6.60;1.88;;;;;;;;;;5050363;28;20126;-72
2022/06/09 01:52:56;;;;;;;5.50;1.88;;;;;;;;;;5049012;28;20028;-72
2022/06/09 01:55:23;;;;;;;3.10;1.70;;;;;;;;;;5049454;28;20032;-72
2022/06/09 01:57:53;;;;;;;3.97;2.13;;;;;;;;;;5050278;28;20062;-72
2022/06/09 02:00:20;;;;;;;5.68;2.15;;;;;;;;;;5049354;28;20490;-72
2022/06/09 02:02:54;;;;;;;10.45;1.98;;;;;;;;;;5050095;28;20024;-72
2022/06/09 02:05:26;;;;;;;4.68;2.10;;;;;;;;;;5049993;28;20485;-72
2022/06/09 02:07:56;;;;;;;4.55;2.10;;;;;;;;;;5050074;28;20033;-72
2022/06/09 02:10:31;;;;;;;4.32;2.05;;;;;;;;;;5045375;28;20037;-72
2022/06/09 02:13:01;;;;;;;5.32;1.65;;;;;;;;;;5047741;28;20402;-72
2022/06/09 02:15:40;;;;;;;6.75;1.52;;;;;;;;;;5041883;28;20028;-72
2022/06/09 02:18:09;;;;;;;3.35;1.40;;;;;;;;;;5049828;28;20036;-75
2022/06/09 02:20:41;;;;;;;4.57;1.23;;;;;;;;;;5048978;28;20033;-73
2022/06/09 02:23:07;;;;;;;6.00;1.98;;;;;;;;;;5047754;28;20029;-74
2022/06/09 02:25:32;;;;;;;3.15;1.23;;;;;;;;;;5049716;28;20013;-73
2022/06/09 02:27:58;;;;;;;6.40;1.63;;;;;;;;;;5049395;28;20029;-74
2022/06/09 02:30:23;;;;;;;6.25;1.50;;;;;;;;;;5048738;28;20021;-73
2022/06/09 02:32:48;;;;;;;4.95;1.40;;;;;;;;;;5049440;28;20024;-73
2022/06/09 02:35:14;;;;;;;7.60;1.50;;;;;;;;;;5049468;28;20067;-74
2022/06/09 02:37:39;;;;;;;4.85;1.55;;;;;;;;;;5049471;28;20056;-73
2022/06/09 02:40:05;;;;;;;3.28;1.70;;;;;;;;;;5048273;28;20116;-73
2022/06/09 02:42:31;;;;;;;6.15;1.55;;;;;;;;;;5049357;28;20025;-73
2022/06/09 02:44:56;;;;;;;6.15;1.52;;;;;;;;;;5049147;28;20075;-74
2022/06/09 02:47:21;;;;;;;6.55;1.63;;;;;;;;;;5049711;28;20037;-72
2022/06/09 02:49:46;;;;;;;5.25;1.40;;;;;;;;;;5047618;28;20029;-73
2022/06/09 02:52:12;;;;;;;6.07;1.50;;;;;;;;;;5048112;28;20478;-74
2022/06/09 02:54:37;;;;;;;5.25;1.52;;;;;;;;;;5049184;28;20071;-75
2022/06/09 02:57:03;;;;;;;4.65;1.63;;;;;;;;;;5048706;28;20031;-73
2022/06/09 02:59:28;;;;;;;8.07;1.88;;;;;;;;;;5049292;28;20029;-74
2022/06/09 03:01:54;;;;;;;5.80;1.45;;;;;;;;;;5046826;28;20482;-73
2022/06/09 03:04:19;;;;;;;3.92;1.30;;;;;;;;;;5048647;28;20090;-73
2022/06/09 03:06:44;;;;;;;7.32;1.35;;;;;;;;;;5048880;28;20028;-75
2022/06/09 03:09:09;;;;;;;6.35;1.65;;;;;;;;;;5048395;28;20051;-74
2022/06/09 03:11:35;;;;;;;7.03;1.45;;;;;;;;;;5048112;28;20025;-74
2022/06/09 03:14:00;;;;;;;7.13;2.00;;;;;;;;;;5048424;28;20471;-74
2022/06/09 03:16:25;;;;;;;7.75;1.80;;;;;;;;;;5048752;28;20120;-74
2022/06/09 03:18:51;;;;;;;7.28;1.70;;;;;;;;;;5047925;28;20107;-72
2022/06/09 03:21:16;;;;;;;7.88;1.88;;;;;;;;;;5047981;28;20554;-74
2022/06/09 03:23:42;;;;;;;7.70;1.73;;;;;;;;;;5048467;28;20060;-74
2022/06/09 03:26:07;;;;;;;8.00;1.63;;;;;;;;;;5048484;28;20088;-72
2022/06/09 03:28:33;;;;;;;9.52;2.10;;;;;;;;;;5048491;28;20032;-75
2022/06/09 03:30:59;;;;;;;6.60;1.52;;;;;;;;;;5045758;28;20095;-74
2022/06/09 03:33:25;;;;;;;5.43;1.77;;;;;;;;;;5048402;28;20036;-74
2022/06/09 03:35:50;;;;;;;5.45;1.85;;;;;;;;;;5048356;28;20528;-73
2022/06/09 03:38:16;;;;;;;4.55;1.52;;;;;;;;;;5048283;28;20041;-73
2022/06/09 03:40:41;;;;;;;5.03;1.38;;;;;;;;;;5047588;28;20033;-74
2022/06/09 03:43:07;;;;;;;9.77;1.60;;;;;;;;;;5048273;28;20478;-74
2022/06/09 03:45:33;;;;;;;3.78;1.48;;;;;;;;;;5047471;28;20166;-74
2022/06/09 03:47:58;;;;;;;6.63;1.92;;;;;;;;;;5048137;28;20033;-72
2022/06/09 03:50:28;;;;;;;6.05;1.48;;;;;;;;;;5047617;28;20024;-73
2022/06/09 03:52:54;;;;;;;4.78;1.35;;;;;;;;;;5048427;28;20382;-73
2022/06/09 03:55:19;;;;;;;4.65;1.42;;;;;;;;;;5048193;28;20029;-75
2022/06/09 03:57:45;;;;;;;5.47;1.58;;;;;;;;;;5048220;28;20090;-74
2022/06/09 04:00:19;;;;;;;8.82;1.83;;;;;;;;;;5047261;28;20020;-74
2022/06/09 04:02:44;;;;;;;5.65;1.60;;;;;;;;;;5048309;28;20020;-73
2022/06/09 04:05:10;;;;;;;8.88;1.65;;;;;;;;;;5047851;28;20280;-74
2022/06/09 04:07:36;;;;;;;5.40;2.05;;;;;;;;;;5049134;28;20552;-74
2022/06/09 04:10:02;;;;;;;4.47;1.75;;;;;;;;;;5051169;28;20029;-73
2022/06/09 04:12:27;;;;;;;6.70;1.50;;;;;;;;;;5035663;28;20454;-75
2022/06/09 04:14:52;;;;;;;10.00;3.03;;;;;;;;;;5051173;28;20107;-74
2022/06/09 04:17:18;;;;;;;4.88;1.30;;;;;;;;;;5052086;28;20090;-74
2022/06/09 04:19:43;;;;;;;7.18;1.85;;;;;;;;;;5049745;28;20021;-74
2022/06/09 04:22:09;;;;;;;4.07;1.38;;;;;;;;;;5051777;28;20100;-74
2022/06/09 04:24:34;;;;;;;7.05;1.38;;;;;;;;;;5051287;28;20037;-72
2022/06/09 04:27:00;;;;;;;7.13;1.90;;;;;;;;;;5051506;28;20032;-73
2022/06/09 04:29:27;;;;;;;7.88;1.60;;;;;;;;;;5052055;28;20501;-74
2022/06/09 04:31:52;;;;;;;5.40;1.33;;;;;;;;;;5052076;28;20024;-72
2022/06/09 04:34:18;;;;;;;4.65;1.63;;;;;;;;;;5051848;28;20024;-73
2022/06/09 04:36:43;;;;;;;8.52;1.60;;;;;;;;;;5050567;28;20104;-74
2022/06/09 04:39:09;;;;;;;6.65;1.63;;;;;;;;;;5051737;28;20517;-73
2022/06/09 04:41:36;;;;;;;8.77;2.22;;;;;;;;;;5050726;28;20075;-72
2022/06/09 04:44:02;;;;;;;6.88;1.55;;;;;;;;;;5051729;28;20043;-72
2022/06/09 04:46:27;;;;;;;5.03;1.42;;;;;;;;;;5045312;28;20477;-73
2022/06/09 04:48:53;;;;;;;6.72;1.52;;;;;;;;;;5051294;28;20441;-74
2022/06/09 04:51:20;;;;;;;7.53;2.10;;;;;;;;;;5051550;28;20503;-73
2022/06/09 04:53:47;;;;;;;9.23;1.80;;;;;;;;;;5051370;28;20036;-74
2022/06/09 04:56:14;;;;;;;8.23;1.75;;;;;;;;;;5049926;28;20107;-74
2022/06/09 04:58:40;;;;;;;9.25;1.63;;;;;;;;;;5051107;28;20068;-73
2022/06/09 05:01:07;;;;;;;3.63;1.27;;;;;;;;;;5051240;28;20028;-70
2022/06/09 05:03:32;;;;;;;5.03;1.35;;;;;;;;;;5051071;28;20025;-73
2022/06/09 05:05:58;;;;;;;4.10;1.52;;;;;;;;;;5050070;28;20551;-73
2022/06/09 05:08:25;;;;;;;4.55;1.60;;;;;;;;;;5050842;28;20037;-75
2022/06/09 05:10:50;;;;;;;86.07;52.30;;;;;;;;;;5051353;28;20074;-72
2022/06/09 05:13:16;;;;;;;15.52;9.30;;;;;;;;;;5048763;28;20487;-73
2022/06/09 05:15:49;;;;;;;4.95;1.85;;;;;;;;;;5051007;28;20025;-72
2022/06/09 05:18:14;;;;;;;;;;;;;;;;;;5048433;28;20024;-74
2022/06/09 05:20:40;;;;;;;8.20;1.83;;;;;;;;;;5050064;28;19912;-75
2022/06/09 05:23:05;;;;;;;5.97;1.60;;;;;;;;;;5050726;28;20383;-74
2022/06/09 05:25:32;;;;;;;8.50;1.90;;;;;;;;;;5050762;28;20049;-74
2022/06/09 05:27:59;;;;;;;7.85;1.98;;;;;;;;;;5049904;28;20038;-74
2022/06/09 05:30:24;;;;;;;5.50;1.58;;;;;;;;;;5049320;28;20123;-73
2022/06/09 05:32:51;;;;;;;7.68;1.85;;;;;;;;;;5050899;28;20546;-75
2022/06/09 05:35:17;;;;;;;6.65;1.50;;;;;;;;;;5051235;28;20459;-75
2022/06/09 05:45:58;;;;;;;5.78;1.40;;;;;;;;;;5050695;28;20060;-74
2022/06/09 05:48:23;;;;;;;5.88;1.90;;;;;;;;;;5046444;28;20131;-74
2022/06/09 05:50:50;;;;;;;5.05;1.40;;;;;;;;;;5049194;28;20037;-74
2022/06/09 05:53:15;;;;;;;4.20;1.60;;;;;;;;;;5050028;28;20047;-75
2022/06/09 05:55:40;;;;;;;5.10;1.75;;;;;;;;;;5049739;28;20037;-75
2022/06/09 05:58:06;;;;;;;5.38;1.55;;;;;;;;;;5047409;28;20395;-74
2022/06/09 06:00:31;;;;;;;4.70;1.88;;;;;;;;;;5046644;28;20029;-74
2022/06/09 06:02:57;;;;;;;10.13;2.30;;;;;;;;;;5046920;28;20087;-75
2022/06/09 06:08:07;;;;;;;4.65;1.70;;;;;;;;;;5048335;28;20580;-73
2022/06/09 06:10:32;;;;;;;5.38;1.70;;;;;;;;;;5043087;28;20033;-75
2022/06/09 06:12:58;;;;;;;5.50;1.42;;;;;;;;;;5047664;28;20032;-77
2022/06/09 06:15:23;;;;;;;6.05;1.73;;;;;;;;;;5043159;28;20269;-75
2022/06/09 06:17:48;;;;;;;4.47;1.70;;;;;;;;;;5045361;28;20021;-75
2022/06/09 06:20:14;;;;;;;5.97;1.90;;;;;;;;;;5043605;28;20044;-73
2022/06/09 06:22:39;;;;;;;6.13;2.38;;;;;;;;;;5043418;28;20052;-73
2022/06/09 06:25:06;;;;;;;6.95;1.95;;;;;;;;;;5041718;28;20021;-76
2022/06/09 06:27:31;;;;;;;6.07;1.70;;;;;;;;;;5043785;28;20090;-74
2022/06/09 06:29:56;;;;;;;11.70;2.63;;;;;;;;;;5046725;28;20016;-77
2022/06/09 06:32:22;;;;;;;5.63;1.67;;;;;;;;;;5041744;28;20028;-73
2022/06/09 06:34:47;;;;;;;6.82;1.73;;;;;;;;;;5046345;28;20036;-73
2022/06/09 06:37:12;;;;;;;4.90;1.60;;;;;;;;;;5045640;28;20032;-76
2022/06/09 06:39:38;;;;;;;8.95;1.80;;;;;;;;;;5044307;28;20592;-76
2022/06/09 06:42:03;;;;;;;7.00;1.67;;;;;;;;;;5040864;28;20036;-75
2022/06/09 06:44:29;;;;;;;7.55;2.30;;;;;;;;;;5041517;28;20037;-74
2022/06/09 06:46:54;;;;;;;9.50;2.05;;;;;;;;;;5042509;28;20025;-72
2022/06/09 06:49:19;;;;;;;5.00;1.88;;;;;;;;;;5036215;28;20025;-74
2022/06/09 06:51:44;;;;;;;5.38;1.83;;;;;;;;;;5043220;28;20029;-76
2022/06/09 06:54:11;;;;;;;5.18;1.65;;;;;;;;;;5042566;28;20062;-75
2022/06/09 06:56:37;;;;;;;4.60;1.52;;;;;;;;;;5044596;28;20025;-74
2022/06/09 06:59:02;;;;;;;6.50;2.17;;;;;;;;;;5045092;28;20109;-74
2022/06/09 07:01:28;;;;;;;6.55;1.70;;;;;;;;;;5038454;28;20546;-75
2022/06/09 07:03:55;;;;;;;5.43;1.40;;;;;;;;;;5039888;28;20438;-70
2022/06/09 07:06:20;;;;;;;5.93;1.75;;;;;;;;;;5041477;28;20404;-75
2022/06/09 07:08:46;;;;;;;9.45;2.05;;;;;;;;;;5041282;28;20037;-75
2022/06/09 07:11:11;;;;;;;5.10;1.80;;;;;;;;;;5040367;28;20025;-74
2022/06/09 07:13:37;;;;;;;5.88;1.75;;;;;;;;;;5043981;28;20033;-75
2022/06/09 07:16:04;;;;;;;6.57;2.20;;;;;;;;;;5040364;28;20075;-75
2022/06/09 07:18:29;;;;;;;7.10;2.13;;;;;;;;;;5042155;28;20295;-74
2022/06/09 07:20:55;;;;;;;6.95;1.70;;;;;;;;;;5040508;28;20442;-72
2022/06/09 07:23:22;;;;;;;7.90;2.03;;;;;;;;;;5040095;28;20045;-75
2022/06/09 07:25:48;;;;;;;6.40;1.70;;;;;;;;;;5045299;22;20104;-74
2022/06/09 07:28:14;;;;;;;6.63;1.75;;;;;;;;;;5019962;28;20041;-75
2022/06/09 07:30:39;;;;;;;5.15;1.65;;;;;;;;;;5020800;28;20059;-75
2022/06/09 07:33:05;;;;;;;8.25;1.77;;;;;;;;;;5021385;28;20045;-75
2022/06/09 07:35:33;;;;;;;8.20;2.28;;;;;;;;;;5020864;28;20063;-73
2022/06/09 07:37:58;;;;;;;7.88;2.00;;;;;;;;;;5021475;28;20029;-73
2022/06/09 07:40:23;;;;;;;6.07;2.40;;;;;;;;;;5021623;28;20518;-74
2022/06/09 07:42:49;;;;;;;8.43;1.92;;;;;;;;;;5021031;28;20034;-74
2022/06/09 07:45:16;;;;;;;4.25;1.70;;;;;;;;;;5021946;28;20044;-75
2022/06/09 07:47:41;;;;;;;7.38;1.90;;;;;;;;;;5019962;28;20124;-74
2022/06/09 07:50:09;;;;;;;4.88;1.90;;;;;;;;;;5020974;28;20120;-73
2022/06/09 07:52:34;;;;;;;10.45;2.20;;;;;;;;;;5021796;28;20431;-73
2022/06/09 07:55:00;;;;;;;4.72;1.77;;;;;;;;;;5021623;28;20029;-73
2022/06/09 07:57:25;;;;;;;7.95;2.15;;;;;;;;;;5020424;28;20022;-75
2022/06/09 07:59:50;;;;;;;8.80;1.77;;;;;;;;;;5021657;28;20644;-75
2022/06/09 08:02:16;;;;;;;4.53;1.85;;;;;;;;;;5024890;28;20037;-75
2022/06/09 08:04:41;;;;;;;7.18;2.22;;;;;;;;;;5027405;28;20490;-75
2022/06/09 08:07:06;;;;;;;7.95;1.95;;;;;;;;;;5024979;28;20029;-73
2022/06/09 08:09:32;;;;;;;7.07;2.00;;;;;;;;;;5021476;28;20026;-72
2022/06/09 08:11:57;;;;;;;9.18;2.05;;;;;;;;;;5022606;28;20029;-75
2022/06/09 08:14:23;;;;;;;6.20;2.22;;;;;;;;;;5019747;28;20388;-72
2022/06/09 08:16:48;;;;;;;7.53;1.90;;;;;;;;;;5026530;28;20050;-73
2022/06/09 08:19:14;;;;;;;56.78;35.45;;;;;;;;;;5020952;28;20032;-74
2022/06/09 08:21:39;;;;;;;28.40;15.60;;;;;;;;;;5021388;28;20029;-73
2022/06/09 08:24:05;;;;;;;22.73;14.50;;;;;;;;;;5022230;28;20447;-74
2022/06/09 08:26:31;;;;;;;9.50;5.32;;;;;;;;;;5028204;28;20156;-75
2022/06/09 08:28:56;;;;;;;13.95;9.43;;;;;;;;;;5036378;28;20115;-74
2022/06/09 08:31:22;;;;;;;7.55;2.70;;;;;;;;;;5040452;28;20024;-75
2022/06/09 08:33:47;;;;;;;6.05;3.10;;;;;;;;;;5021196;28;20033;-74
2022/06/09 08:36:13;;;;;;;11.00;2.63;;;;;;;;;;5019856;28;20485;-75
2022/06/09 08:38:40;;;;;;;4.53;2.20;;;;;;;;;;5028131;28;20152;-75
2022/06/09 08:41:27;;;;;;;11.48;4.93;;;;;;;;;;5030337;28;20100;-75
2022/06/09 08:43:55;;;;;;;32.42;15.70;;;;;;;;;;5022361;28;20021;-74
2022/06/09 08:46:42;;;;;;;23.80;10.63;;;;;;;;;;5025974;28;20025;-75
2022/06/09 08:49:49;;;;;;;13.70;6.00;;;;;;;;;;5017015;28;20202;-74
2022/06/09 08:52:41;;;;;;;10.23;3.80;;;;;;;;;;4992217;28;20068;-74
2022/06/09 08:55:27;;;;;;;9.32;2.55;;;;;;;;;;5025063;28;20516;-73
2022/06/09 08:57:58;;;;;;;7.10;2.28;;;;;;;;;;5024563;28;20049;-73
2022/06/09 09:00:29;;;;;;;8.95;1.92;;;;;;;;;;5037850;28;20029;-74
2022/06/09 09:03:01;;;;;;;4.82;1.70;;;;;;;;;;5024890;28;20365;-74
2022/06/09 09:05:40;;;;;;;6.85;2.03;;;;;;;;;;5023188;28;20268;-74
2022/06/09 09:08:08;;;;;;;4.25;1.73;;;;;;;;;;5022200;28;20112;-75
2022/06/09 09:10:56;;;;;;;6.18;1.83;;;;;;;;;;5032760;28;20032;-75
2022/06/09 09:13:45;;;;;;;4.70;1.83;;;;;;;;;;5037697;28;20566;-73
2022/06/09 09:16:25;;;;;;;3.90;1.88;;;;;;;;;;5024638;28;20025;-74
2022/06/09 09:19:03;;;;;;;11.13;1.67;;;;;;;;;;5023873;28;20022;-74
2022/06/09 09:21:54;;;;;;;9.32;1.95;;;;;;;;;;5022026;28;20402;-74
2022/06/09 09:24:22;;;;;;;6.28;2.47;;;;;;;;;;5027012;28;20071;-76
2022/06/09 09:26:54;;;;;;;8.35;2.70;;;;;;;;;;5021718;28;20080;-75
2022/06/09 09:29:28;;;;;;;6.28;2.90;;;;;;;;;;5031717;28;20040;-74
2022/06/09 09:31:55;;;;;;;8.35;2.45;;;;;;;;;;5026496;28;20034;-75
2022/06/09 09:34:22;;;;;;;6.10;1.65;;;;;;;;;;5022575;28;20033;-77
2022/06/09 09:36:50;;;;;;;6.57;1.75;;;;;;;;;;5020667;28;20036;-75
2022/06/09 09:39:17;;;;;;;7.07;2.30;;;;;;;;;;5029783;28;20390;-75
2022/06/09 09:41:43;;;;;;;9.30;2.47;;;;;;;;;;5020152;28;20032;-74
2022/06/09 09:44:22;;;;;;;5.35;1.85;;;;;;;;;;5030919;28;20024;-75
2022/06/09 09:46:49;;;;;;;6.32;1.92;;;;;;;;;;5022607;28;20022;-74
2022/06/09 09:49:22;;;;;;;6.30;1.85;;;;;;;;;;5018794;28;20037;-73
2022/06/09 09:51:48;;;;;;;8.50;2.38;;;;;;;;;;5021937;28;20438;-73
2022/06/09 09:54:26;;;;;;;6.47;1.75;;;;;;;;;;5027824;28;20059;-74
2022/06/09 09:57:02;;;;;;;4.95;1.58;;;;;;;;;;5025248;28;20028;-74
2022/06/09 09:59:27;;;;;;;6.15;1.75;;;;;;;;;;5028119;28;20509;-72
2022/06/09 10:10:19;;;;;;;6.65;1.92;;;;;;;;;;5031221;28;20067;-74
2022/06/09 10:12:45;;;;;;;8.73;2.40;;;;;;;;;;5028727;28;20029;-74
2022/06/09 10:15:10;;;;;;;7.47;1.75;;;;;;;;;;5030913;28;20040;-75
2022/06/09 10:17:48;;;;;;;7.77;2.00;;;;;;;;;;5028583;28;20028;-74
2022/06/09 10:20:13;;;;;;;5.28;1.58;;;;;;;;;;5020707;28;20704;-73
2022/06/09 10:22:40;;;;;;;5.37;1.67;;;;;;;;;;5037699;28;20068;-75
2022/06/09 10:25:20;;;;;;;3.88;1.35;;;;;;;;;;5026577;28;20040;-74
2022/06/09 10:27:48;;;;;;;7.20;1.83;;;;;;;;;;5024010;28;20029;-75
2022/06/09 10:30:18;;;;;;;6.85;1.63;;;;;;;;;;5023465;28;20087;-73
2022/06/09 10:33:03;;;;;;;5.75;1.80;;;;;;;;;;5023262;28;20029;-74
2022/06/09 10:35:40;;;;;;;4.63;1.80;;;;;;;;;;5018320;28;20060;-75
2022/06/09 10:38:12;;;;;;;6.57;2.20;;;;;;;;;;5022229;28;20545;-72
2022/06/09 10:40:42;;;;;;;6.82;1.75;;;;;;;;;;5023882;28;20029;-73
2022/06/09 10:43:26;;;;;;;7.13;2.22;;;;;;;;;;5023856;28;20022;-74
2022/06/09 10:45:56;;;;;;;4.65;1.77;;;;;;;;;;5022828;28;20033;-73
2022/06/09 10:56:50;;;;;;;8.57;2.40;;;;;;;;;;5025675;28;20060;-74
2022/06/09 10:59:27;;;;;;;5.22;1.48;;;;;;;;;;5022144;28;20113;-73
2022/06/09 11:01:53;;;;;;;6.20;1.70;;;;;;;;;;5020160;28;20411;-76
2022/06/09 11:04:18;;;;;;;4.90;1.70;;;;;;;;;;5021690;28;20044;-77
2022/06/09 11:06:59;;;;;;;5.65;1.67;;;;;;;;;;5021099;28;20040;-76
2022/06/09 11:09:27;;;;;;;3.25;1.90;;;;;;;;;;5032583;28;20096;-77
2022/06/09 11:11:52;;;;;;;3.92;1.27;;;;;;;;;;5026571;28;20172;-75
2022/06/09 11:14:41;;;;;;;6.30;1.90;;;;;;;;;;5021986;28;20582;-76
2022/06/09 11:17:09;;;;;;;3.85;1.40;;;;;;;;;;5015453;28;20297;-76
2022/06/09 11:19:53;;;;;;;2.95;1.00;;;;;;;;;;5024267;28;20035;-75
2022/06/09 11:22:37;;;;;;;3.55;1.15;;;;;;;;;;5027283;28;20270;-73
2022/06/09 11:25:02;;;;;;;5.28;1.40;;;;;;;;;;5027130;28;20026;-76
2022/06/09 11:27:30;;;;;;;5.80;1.40;;;;;;;;;;5020627;28;20493;-73
2022/06/09 11:30:11;;;;;;;4.68;1.60;;;;;;;;;;5019503;28;20030;-73
2022/06/09 11:32:49;;;;;;;5.20;1.63;;;;;;;;;;5015716;28;20375;-73
2022/06/09 11:35:30;;;;;;;4.00;1.50;;;;;;;;;;5032910;28;20096;-72
2022/06/09 11:38:04;;;;;;;4.10;1.52;;;;;;;;;;5022203;28;20052;-72
2022/06/09 11:40:29;;;;;;;5.30;1.70;;;;;;;;;;5022165;28;20033;-74
2022/06/09 11:42:54;;;;;;;5.47;1.57;;;;;;;;;;5026964;28;20425;-74
2022/06/09 11:45:20;;;;;;;10.37;2.73;;;;;;;;;;5029920;28;20068;-73
2022/06/09 11:47:45;;;;;;;7.00;3.03;;;;;;;;;;5023879;28;20061;-73
2022/06/09 11:50:11;;;;;;;8.23;3.25;;;;;;;;;;5018735;28;20150;-74
2022/06/09 11:52:41;;;;;;;7.45;2.63;;;;;;;;;;5022885;28;20060;-72
2022/06/09 11:58:42;;;;;;;9.38;3.10;;;;;;;;;;5021225;28;20091;-72
2022/06/09 12:01:10;;;;;;;10.63;2.63;;;;;;;;;;5015520;28;20515;-71
2022/06/09 12:03:47;;;;;;;9.07;2.40;;;;;;;;;;5023817;28;20047;-72
2022/06/09 12:06:17;;;;;;;10.10;3.42;;;;;;;;;;5021505;28;20299;-73
2022/06/09 12:09:01;;;;;;;10.40;3.45;;;;;;;;;;5028393;28;20029;-74
2022/06/09 12:11:46;;;;;;;7.97;1.55;;;;;;;;;;5039192;28;20043;-72
2022/06/09 12:14:16;;;;;;;5.18;1.42;;;;;;;;;;5029601;28;20017;-73
2022/06/09 12:16:56;;;;;;;3.90;1.63;;;;;;;;;;5028942;28;20117;-74
2022/06/09 12:19:23;;;;;;;4.60;1.60;;;;;;;;;;5019575;28;20036;-71
2022/06/09 12:21:50;;;;;;;7.75;1.83;;;;;;;;;;5026976;28;20386;-72
2022/06/09 12:24:18;;;;;;;4.75;1.45;;;;;;;;;;5034404;28;20116;-72
2022/06/09 12:26:48;;;;;;;6.55;1.38;;;;;;;;;;5033222;28;20035;-72
2022/06/09 12:29:19;;;;;;;4.97;1.65;;;;;;;;;;5026968;28;20025;-72
2022/06/09 12:32:20;;;;;;;4.45;1.40;;;;;;;;;;5024371;28;20439;-72
2022/06/09 12:34:51;;;;;;;3.60;2.60;;;;;;;;;;5024560;28;20509;-75
2022/06/09 12:37:24;;;;;;;5.00;1.60;;;;;;;;;;5024264;28;20033;-71
2022/06/09 12:39:52;;;;;;;3.92;2.80;;;;;;;;;;5023285;28;20257;-71
2022/06/09 12:42:31;;;;;;;5.90;2.22;;;;;;;;;;5020777;28;20053;-79
2022/06/09 12:45:16;;;;;;;5.07;1.27;;;;;;;;;;5021071;28;20021;-74
2022/06/09 12:47:52;;;;;;;4.15;1.35;;;;;;;;;;5022797;28;20155;-73
2022/06/09 12:50:44;;;;;;;3.58;1.30;;;;;;;;;;5037201;28;20036;-75
2022/06/09 12:53:27;;;;;;;4.95;1.42;;;;;;;;;;5010827;28;20136;-73
2022/06/09 12:55:57;;;;;;;5.13;1.80;;;;;;;;;;5023141;28;20039;-71
2022/06/09 12:58:22;;;;;;;4.32;1.25;;;;;;;;;;5024037;28;20033;-74
2022/06/09 13:00:52;;;;;;;4.37;1.40;;;;;;;;;;5024918;28;20533;-72
2022/06/09 13:03:29;;;;;;;6.30;1.40;;;;;;;;;;5025520;28;20305;-74
2022/06/09 13:05:55;;;;;;;5.85;1.27;;;;;;;;;;5027609;28;20032;-73
2022/06/09 13:08:23;;;;;;;4.43;1.48;;;;;;;;;;5034615;28;20099;-72
2022/06/09 13:10:54;;;;;;;3.78;1.10;;;;;;;;;;5024500;28;20495;-72
2022/06/09 13:13:22;;;;;;;2.95;1.27;;;;;;;;;;5027534;28;20112;-76
2022/06/09 13:16:02;;;;;;;2.97;1.00;;;;;;;;;;5023632;28;20214;-71
2022/06/09 13:18:31;;;;;;;2.72;1.02;;;;;;;;;;5023019;28;20025;-75
2022/06/09 13:20:58;;;;;;;3.08;1.27;;;;;;;;;;5023055;28;20080;-70
2022/06/09 13:23:23;;;;;;;5.53;1.17;;;;;;;;;;5031873;28;20036;-71
2022/06/09 13:25:49;;;;;;;2.08;1.00;;;;;;;;;;5022890;28;20025;-71
2022/06/09 13:28:27;;;;;;;4.25;1.40;;;;;;;;;;5022979;28;20029;-72
2022/06/09 13:30:53;;;;;;;6.10;1.50;;;;;;;;;;5024879;28;20439;-70
2022/06/09 13:33:31;;;;;;;4.90;1.10;;;;;;;;;;5033113;28;20720;-73
2022/06/09 13:36:14;;;;;;;3.22;1.08;;;;;;;;;;5030016;28;20275;-74
2022/06/09 13:38:40;;;;;;;5.00;1.33;;;;;;;;;;5025215;28;20025;-73
2022/06/09 13:41:08;;;;;;;4.70;1.33;;;;;;;;;;5024274;28;20371;-72
2022/06/09 13:43:36;;;;;;;3.03;1.17;;;;;;;;;;5024327;28;20274;-73
2022/06/09 13:46:03;;;;;;;4.10;1.30;;;;;;;;;;5025278;28;20017;-72
2022/06/09 13:48:38;;;;;;;5.88;1.38;;;;;;;;;;5037350;28;20101;-70
2022/06/09 13:51:03;;;;;;;2.85;0.95;;;;;;;;;;5038278;28;20139;-71
2022/06/09 13:53:32;;;;;;;4.27;1.30;;;;;;;;;;5038557;28;20503;-72
2022/06/09 13:55:57;;;;;;;3.53;1.30;;;;;;;;;;5039684;28;20025;-74
2022/06/09 13:58:23;;;;;;;4.30;1.30;;;;;;;;;;5025666;28;20397;-71
2022/06/09 14:00:53;;;;;;;3.80;1.10;;;;;;;;;;5026221;28;20108;-71
2022/06/09 14:03:26;;;;;;;5.18;1.30;;;;;;;;;;5033769;28;20384;-71
2022/06/09 14:05:56;;;;;;;3.42;1.25;;;;;;;;;;5034586;28;20087;-75
2022/06/09 14:08:22;;;;;;;6.70;1.23;;;;;;;;;;5023790;28;20048;-74
2022/06/09 14:10:48;;;;;;;3.00;1.10;;;;;;;;;;5026232;28;20128;-74
2022/06/09 14:13:13;;;;;;;1.95;1.05;;;;;;;;;;5026946;28;20582;-72
2022/06/09 14:15:40;;;;;;;2.95;1.17;;;;;;;;;;5026821;28;20095;-71
2022/06/09 14:18:06;;;;;;;4.32;1.27;;;;;;;;;;5026215;28;20033;-73
2022/06/09 14:20:33;;;;;;;4.82;1.20;;;;;;;;;;5026859;28;20029;-72
2022/06/09 14:22:59;;;;;;;3.70;1.00;;;;;;;;;;5024665;28;20052;-71
2022/06/09 14:25:24;;;;;;;2.92;0.90;;;;;;;;;;5026661;28;20495;-74
2022/06/09 14:27:50;;;;;;;4.95;1.33;;;;;;;;;;5025963;28;20029;-72
2022/06/09 14:30:16;;;;;;;2.88;1.00;;;;;;;;;;5023357;28;20022;-70
2022/06/09 14:32:41;;;;;;;2.15;1.40;;;;;;;;;;5035088;28;20021;-73
2022/06/09 14:35:07;;;;;;;4.40;1.00;;;;;;;;;;5033757;28;20013;-74
2022/06/09 14:37:32;;;;;;;5.40;1.20;;;;;;;;;;5023470;28;20384;-75
2022/06/09 14:39:57;;;;;;;3.72;1.02;;;;;;;;;;5025600;28;20021;-71
2022/06/09 14:42:23;;;;;;;4.23;1.17;;;;;;;;;;5033595;28;20045;-73
2022/06/09 14:44:48;;;;;;;5.57;1.52;;;;;;;;;;5032273;28;20278;-73
2022/06/09 14:47:15;;;;;;;6.47;1.85;;;;;;;;;;5025368;28;20418;-71
2022/06/09 14:49:40;;;;;;;3.05;1.20;;;;;;;;;;5031013;28;20037;-71
2022/06/09 14:52:06;;;;;;;2.10;1.30;;;;;;;;;;5025495;28;20014;-73
2022/06/09 14:54:32;;;;;;;3.60;1.23;;;;;;;;;;5025881;28;20025;-75
2022/06/09 14:57:00;;;;;;;2.55;1.20;;;;;;;;;;5026248;28;20378;-72
2022/06/09 14:59:27;;;;;;;2.33;0.90;;;;;;;;;;5025653;28;20052;-73
2022/06/09 15:01:53;;;;;;;4.22;1.30;;;;;;;;;;5025647;28;20041;-72
2022/06/09 15:04:19;;;;;;;5.10;1.30;;;;;;;;;;5021473;28;20455;-73
2022/06/09 15:06:44;;;;;;;5.38;1.50;;;;;;;;;;5025614;28;20028;-72
2022/06/09 15:09:10;;;;;;;3.33;1.35;;;;;;;;;;5025108;28;20022;-72
2022/06/09 15:11:36;;;;;;;4.80;1.55;;;;;;;;;;5028543;28;20467;-73
2022/06/09 15:14:01;;;;;;;4.45;1.30;;;;;;;;;;5029663;28;20040;-74
2022/06/09 15:16:29;;;;;;;1.73;1.10;;;;;;;;;;5036418;28;20482;-73
2022/06/09 15:18:54;;;;;;;4.68;1.20;;;;;;;;;;5031308;28;20365;-74
2022/06/09 15:21:20;;;;;;;4.53;1.23;;;;;;;;;;5029354;28;20101;-75
2022/06/09 15:23:49;;;;;;;4.68;1.05;;;;;;;;;;5028564;28;20030;-73
2022/06/09 15:26:23;;;;;;;3.03;1.27;;;;;;;;;;5028496;28;20033;-75